Time;durP1;ratioP1;P1;durP2;ratioP2;P2;SDS_P1;SDS_P2;PMS_P1;PMS_P2;Temp;Humidity;BMP_temperature;BMP_pressure;BME280_temperature;BME280_humidity;BME280_pressure;Samples;Min_cycle;Max_cycle;Signal;HPM_P1;HPM_P2
2023/07/18 00:00:32;;;;;;;4.75;1.45;;;;;;;16.99;90.29;101938.34;5002392;28;20236;-75
2023/07/18 00:02:58;;;;;;;4.00;2.10;;;;;;;16.92;90.68;101938.31;4999019;28;20037;-76
2023/07/18 00:05:23;;;;;;;8.68;2.00;;;;;;;16.88;90.34;101940.31;4995656;28;20524;-75
2023/07/18 00:07:49;;;;;;;6.18;1.65;;;;;;;16.95;90.54;101943.16;4997725;28;20068;-75
2023/07/18 00:10:19;;;;;;;2.90;1.52;;;;;;;16.99;90.32;101939.16;5000950;28;20113;-75
2023/07/18 00:12:45;;;;;;;5.43;1.98;;;;;;;16.90;90.61;101946.38;5007120;28;20072;-75
2023/07/18 00:15:11;;;;;;;7.30;1.77;;;;;;;16.83;91.38;101942.31;4982328;28;20030;-75
2023/07/18 00:17:37;;;;;;;3.30;2.08;;;;;;;16.81;90.95;101941.88;4987534;28;20470;-75
2023/07/18 00:20:08;;;;;;;4.10;2.10;;;;;;;16.85;91.08;101939.88;5005519;28;20030;-75
2023/07/18 00:22:33;;;;;;;2.95;1.60;;;;;;;16.83;90.60;101942.31;4992273;28;20439;-76
2023/07/18 00:24:59;;;;;;;9.50;2.38;;;;;;;16.79;91.62;101932.97;4990185;28;20042;-75
2023/07/18 00:27:24;;;;;;;6.15;1.83;;;;;;;16.76;92.14;101930.94;4989755;28;20050;-75
2023/07/18 00:29:50;;;;;;;4.65;1.70;;;;;;;16.74;91.18;101924.88;4989758;28;20022;-74
2023/07/18 00:32:16;;;;;;;4.30;1.58;;;;;;;16.77;92.21;101923.25;4988897;28;21898;-75
2023/07/18 00:34:41;;;;;;;4.57;1.77;;;;;;;16.72;92.08;101920.78;4989815;28;20057;-75
2023/07/18 00:37:07;;;;;;;6.05;2.10;;;;;;;16.75;92.33;101918.00;4992761;28;20104;-75
2023/07/18 00:39:32;;;;;;;4.70;2.35;;;;;;;16.72;92.57;101921.63;4995286;28;20036;-76
2023/07/18 00:42:00;;;;;;;5.65;1.80;;;;;;;16.73;92.01;101922.44;4995416;28;20445;-76
2023/07/18 00:44:25;;;;;;;4.65;1.58;;;;;;;16.70;92.72;101917.53;4994206;28;20096;-75
2023/07/18 00:46:51;;;;;;;3.72;1.90;;;;;;;16.72;92.09;101920.78;4991793;28;20026;-75
2023/07/18 00:49:16;;;;;;;7.25;2.10;;;;;;;16.74;91.48;101921.22;4989633;28;20251;-75
2023/07/18 00:51:43;;;;;;;3.90;2.67;;;;;;;16.79;91.56;101927.31;4992389;28;20025;-75
2023/07/18 00:54:08;;;;;;;8.40;2.33;;;;;;;16.67;91.92;101925.63;4989312;28;20033;-75
2023/07/18 00:56:34;;;;;;;4.88;1.88;;;;;;;16.65;92.20;101924.38;4994348;28;20044;-75
2023/07/18 00:59:00;;;;;;;5.18;1.92;;;;;;;16.63;92.09;101923.97;4993232;28;20074;-76
2023/07/18 01:01:25;;;;;;;8.55;1.77;;;;;;;16.55;92.92;101911.00;4992936;28;20049;-76
2023/07/18 01:03:53;;;;;;;7.82;2.22;;;;;;;16.60;92.10;101921.94;4991110;28;20784;-76
2023/07/18 01:06:18;;;;;;;3.40;1.80;;;;;;;16.63;92.50;101919.16;4995494;28;20050;-76
2023/07/18 01:08:44;;;;;;;4.30;2.25;;;;;;;16.66;91.83;101918.34;4994786;28;20112;-75
2023/07/18 01:11:09;;;;;;;9.35;1.92;;;;;;;16.62;92.15;101922.38;4998708;28;20259;-75
2023/07/18 01:13:35;;;;;;;4.65;2.00;;;;;;;16.60;92.55;101921.94;4992234;28;20041;-75
2023/07/18 01:16:01;;;;;;;3.05;1.70;;;;;;;16.40;95.85;101927.88;4994346;28;20053;-75
2023/07/18 01:18:27;;;;;;;9.63;2.63;;;;;;;16.34;94.26;101918.16;4988662;28;20033;-75
2023/07/18 01:20:54;;;;;;;5.63;2.60;;;;;;;16.41;94.64;101923.03;4993047;28;20025;-75
2023/07/18 01:23:21;;;;;;;3.88;1.88;;;;;;;16.49;93.62;101915.44;4993296;28;20111;-75
2023/07/18 01:25:47;;;;;;;7.32;1.73;;;;;;;16.45;94.08;101913.38;4994671;28;20917;-75
2023/07/18 01:28:12;;;;;;;5.53;1.70;;;;;;;16.42;93.96;101910.50;4999084;28;20069;-75
2023/07/18 01:30:38;;;;;;;4.40;1.73;;;;;;;16.55;92.33;101923.13;4993685;28;20058;-75
2023/07/18 01:33:04;;;;;;;5.13;1.70;;;;;;;16.52;93.18;101923.91;4997405;28;20022;-76
2023/07/18 01:35:29;;;;;;;4.55;1.92;;;;;;;16.59;92.24;101923.97;4991931;28;20168;-75
2023/07/18 01:37:56;;;;;;;5.30;1.70;;;;;;;16.51;93.13;101915.81;4997803;28;20025;-75
2023/07/18 01:40:23;;;;;;;8.38;1.65;;;;;;;16.52;94.07;101917.44;4988978;28;20029;-75
2023/07/18 01:42:53;;;;;;;5.05;1.73;;;;;;;16.26;94.93;101905.16;4992863;28;20493;-75
2023/07/18 01:45:24;;;;;;;3.58;1.30;;;;;;;16.44;94.24;101911.75;5001521;28;20220;-76
2023/07/18 01:47:50;;;;;;;11.05;1.95;;;;;;;16.43;94.00;101912.16;4989371;28;20030;-75
2023/07/18 01:50:16;;;;;;;3.70;1.45;;;;;;;16.44;93.92;101917.41;4987301;28;20151;-75
2023/07/18 01:52:41;;;;;;;6.50;1.73;;;;;;;16.34;95.41;101909.66;4992735;28;20168;-75
2023/07/18 01:55:07;;;;;;;6.22;1.77;;;;;;;16.40;94.20;101908.09;4987454;28;20517;-75
2023/07/18 01:57:35;;;;;;;3.25;1.52;;;;;;;16.39;94.39;101903.63;5008473;28;20046;-75
2023/07/18 02:00:01;;;;;;;4.28;1.55;;;;;;;16.23;95.25;101900.28;4989923;28;20041;-75
2023/07/18 02:02:30;;;;;;;10.82;2.17;;;;;;;16.35;94.01;101905.63;4990683;28;20601;-75
2023/07/18 02:04:58;;;;;;;4.68;2.13;;;;;;;16.37;94.11;101913.72;4992527;28;20046;-75
2023/07/18 02:07:25;;;;;;;3.30;1.63;;;;;;;16.35;94.34;101905.63;4982704;28;20480;-76
2023/07/18 02:09:54;;;;;;;4.72;1.60;;;;;;;16.35;94.94;101902.81;4986486;28;20026;-75
2023/07/18 02:12:19;;;;;;;4.57;1.60;;;;;;;16.21;96.44;101902.69;4992131;28;20694;-75
2023/07/18 02:14:44;;;;;;;7.45;2.63;;;;;;;16.19;96.10;101893.81;4987545;28;20052;-75
2023/07/18 02:17:10;;;;;;;5.85;1.90;;;;;;;16.26;95.91;101894.69;4990976;28;20486;-75
2023/07/18 02:19:35;;;;;;;6.75;2.80;;;;;;;16.11;97.38;101897.81;4995183;28;20021;-76
2023/07/18 02:22:02;;;;;;;4.35;1.70;;;;;;;16.22;95.42;101884.56;4997049;28;20045;-75
2023/07/18 02:24:27;;;;;;;6.88;1.48;;;;;;;16.17;96.86;101890.56;5005271;28;20394;-75
2023/07/18 02:26:54;;;;;;;5.95;1.95;;;;;;;16.26;95.92;101896.69;4993035;28;20113;-75
2023/07/18 02:29:20;;;;;;;2.85;1.60;;;;;;;16.20;96.51;101895.44;4996597;28;20132;-76
2023/07/18 02:31:46;;;;;;;10.27;2.22;;;;;;;16.19;97.20;101893.81;5006668;28;20050;-75
2023/07/18 02:34:11;;;;;;;9.90;2.47;;;;;;;16.01;99.18;101897.31;4997022;28;20087;-75
2023/07/18 02:36:36;;;;;;;5.90;2.78;;;;;;;16.22;96.78;101895.84;4982629;28;20650;-75
2023/07/18 02:39:03;;;;;;;9.60;2.40;;;;;;;16.11;99.30;101901.44;4992223;28;20038;-75
2023/07/18 02:41:29;;;;;;;6.10;1.75;;;;;;;16.06;98.39;101893.31;4992439;28;20029;-76
2023/07/18 02:43:54;;;;;;;6.60;1.92;;;;;;;16.01;99.06;101891.66;4999187;28;20103;-76
2023/07/18 02:46:19;;;;;;;2.63;1.80;;;;;;;16.03;98.32;101889.25;5010430;28;20041;-76
2023/07/18 02:48:45;;;;;;;7.05;2.22;;;;;;;15.98;98.41;101889.63;4999589;28;20609;-75
2023/07/18 02:51:11;;;;;;;11.27;2.25;;;;;;;16.03;99.53;101894.91;4999256;28;20026;-76
2023/07/18 02:53:36;;;;;;;7.97;2.33;;;;;;;16.16;97.31;101894.59;4999703;28;20104;-75
2023/07/18 02:56:01;;;;;;;6.65;2.00;;;;;;;16.14;97.58;101886.50;4993202;28;20147;-75
2023/07/18 02:58:27;;;;;;;5.18;1.55;;;;;;;16.12;97.10;101882.47;4998548;28;20063;-75
2023/07/18 03:00:52;;;;;;;5.10;2.42;;;;;;;16.15;97.05;101895.78;4999081;28;20474;-75
2023/07/18 03:03:18;;;;;;;3.92;1.70;;;;;;;16.13;96.54;101901.00;5007171;28;20036;-74
2023/07/18 03:05:43;;;;;;;3.80;1.50;;;;;;;16.14;97.09;101899.81;5005891;28;20092;-75
2023/07/18 03:08:08;;;;;;;5.47;1.85;;;;;;;16.02;97.51;101890.47;5012929;28;20037;-76
2023/07/18 03:10:36;;;;;;;6.03;2.55;;;;;;;16.07;97.76;101903.41;5004186;28;20038;-75
2023/07/18 03:13:02;;;;;;;8.40;2.33;;;;;;;16.10;97.39;101899.00;4993368;28;20036;-75
2023/07/18 03:15:27;;;;;;;8.63;1.77;;;;;;;16.16;96.14;101894.59;5017478;28;20041;-75
2023/07/18 03:17:53;;;;;;;4.30;2.35;;;;;;;16.00;97.63;101889.22;5006191;28;20083;-75
2023/07/18 03:20:19;;;;;;;7.45;2.25;;;;;;;15.80;100.00;101903.56;4998324;28;20029;-76
2023/07/18 03:22:48;;;;;;;4.78;1.67;;;;;;;15.97;97.62;101901.31;5003927;28;20397;-75
2023/07/18 03:25:14;;;;;;;4.95;2.35;;;;;;;15.87;99.08;101890.72;4995285;28;20501;-75
2023/07/18 03:27:40;;;;;;;4.50;2.17;;;;;;;15.84;99.02;101890.31;4995025;28;20490;-75
2023/07/18 03:30:07;;;;;;;5.95;2.13;;;;;;;15.85;98.41;101896.75;4998344;28;20065;-75
2023/07/18 03:32:33;;;;;;;5.57;2.88;;;;;;;15.90;97.81;101899.25;4997284;28;20474;-75
2023/07/18 03:34:59;;;;;;;6.68;2.53;;;;;;;15.90;97.47;101896.41;5009442;28;20025;-75
2023/07/18 03:37:25;;;;;;;8.05;1.88;;;;;;;15.95;97.00;101895.25;4996493;28;20107;-75
2023/07/18 03:39:50;;;;;;;2.67;1.88;;;;;;;15.88;97.30;101901.63;5010988;28;20415;-75
2023/07/18 03:42:16;;;;;;;10.70;2.90;;;;;;;15.91;96.79;101894.41;4988561;28;20029;-75
2023/07/18 03:44:41;;;;;;;6.15;2.03;;;;;;;15.89;97.25;101897.59;4998592;28;20034;-75
2023/07/18 03:47:07;;;;;;;8.80;2.08;;;;;;;15.92;96.45;101891.19;4990128;28;20470;-75
2023/07/18 03:49:32;;;;;;;3.45;1.73;;;;;;;15.90;97.16;101893.59;4996640;28;20080;-75
2023/07/18 03:51:58;;;;;;;6.85;1.90;;;;;;;15.83;97.49;101896.34;5000693;28;20030;-75
2023/07/18 03:54:24;;;;;;;7.82;2.50;;;;;;;15.72;98.43;101889.78;4992431;28;20457;-74
2023/07/18 03:56:50;;;;;;;10.43;2.50;;;;;;;15.80;97.51;101897.94;4997695;28;20108;-74
2023/07/18 03:59:16;;;;;;;4.60;2.20;;;;;;;15.80;97.38;101897.13;4991865;28;20030;-75
2023/07/18 04:01:41;;;;;;;3.67;2.20;;;;;;;15.71;98.42;101888.94;4989910;28;20026;-74
2023/07/18 04:04:06;;;;;;;5.40;1.70;;;;;;;15.72;98.12;101884.16;5009165;28;20040;-75
2023/07/18 04:06:32;;;;;;;5.28;2.30;;;;;;;15.79;97.74;101884.19;4992249;28;20048;-75
2023/07/18 04:08:58;;;;;;;8.10;2.45;;;;;;;15.84;96.71;101883.84;4996175;28;20049;-75
2023/07/18 04:11:24;;;;;;;9.63;2.33;;;;;;;15.89;97.16;101882.69;4992661;28;20045;-74
2023/07/18 04:13:49;;;;;;;6.35;2.00;;;;;;;15.79;97.59;101876.56;4982565;28;20217;-75
2023/07/18 04:16:14;;;;;;;4.55;1.90;;;;;;;15.77;97.86;101878.13;4963130;28;20393;-74
2023/07/18 04:18:40;;;;;;;7.53;2.10;;;;;;;15.73;98.43;101874.50;4994179;28;20026;-76
2023/07/18 04:21:06;;;;;;;8.48;2.83;;;;;;;15.78;97.94;101879.75;4995785;28;20075;-75
2023/07/18 04:23:32;;;;;;;8.02;3.03;;;;;;;15.78;97.49;101874.13;4997185;28;20112;-75
2023/07/18 04:26:01;;;;;;;5.00;1.55;;;;;;;15.75;97.44;101874.91;5009479;28;20029;-74
2023/07/18 04:28:29;;;;;;;2.58;1.60;;;;;;;15.82;96.91;101869.31;4994478;28;20052;-74
2023/07/18 04:30:55;;;;;;;2.85;2.25;;;;;;;15.77;97.46;101866.84;5000449;28;20092;-75
2023/07/18 04:33:21;;;;;;;4.72;2.13;;;;;;;15.83;96.76;101871.75;5008280;28;20040;-75
2023/07/18 04:35:46;;;;;;;4.63;1.95;;;;;;;15.59;98.46;101883.59;5000445;28;20030;-75
2023/07/18 04:38:13;;;;;;;11.05;2.63;;;;;;;15.69;98.32;101876.44;5004016;28;20033;-75
2023/07/18 04:40:39;;;;;;;7.43;2.03;;;;;;;15.70;98.10;101884.50;4999967;28;20088;-74
2023/07/18 04:43:05;;;;;;;4.72;2.13;;;;;;;15.69;97.89;101879.25;5002322;28;20044;-74
2023/07/18 04:45:31;;;;;;;7.20;2.25;;;;;;;15.60;99.22;101874.75;4994152;28;20451;-74
2023/07/18 04:47:56;;;;;;;9.10;2.30;;;;;;;15.52;98.89;101875.88;4994001;28;20026;-75
2023/07/18 04:50:22;;;;;;;5.43;2.42;;;;;;;15.68;97.32;101867.13;4996036;28;20030;-74
2023/07/18 04:52:47;;;;;;;6.05;2.10;;;;;;;15.61;98.21;101881.19;4997560;28;20378;-74
2023/07/18 04:55:13;;;;;;;7.68;1.98;;;;;;;15.64;98.24;101881.25;4989763;28;20091;-75
2023/07/18 04:57:39;;;;;;;9.85;2.22;;;;;;;15.65;98.00;101877.19;4996038;28;20037;-75
2023/07/18 05:00:05;;;;;;;5.20;2.20;;;;;;;15.52;99.45;101875.88;4994528;28;20026;-74
2023/07/18 05:02:30;;;;;;;5.32;2.28;;;;;;;15.60;99.23;101869.09;4998628;28;20117;-74
2023/07/18 05:04:56;;;;;;;5.75;2.05;;;;;;;15.58;98.57;101870.66;5001102;28;20601;-75
2023/07/18 05:07:22;;;;;;;7.20;2.05;;;;;;;15.70;98.37;101873.19;4999706;28;20041;-75
2023/07/18 05:09:47;;;;;;;7.30;2.15;;;;;;;15.67;98.10;101876.00;5000552;28;20035;-74
2023/07/18 05:12:13;;;;;;;2.80;1.85;;;;;;;15.72;98.33;101884.16;4991232;28;20030;-74
2023/07/18 05:14:38;;;;;;;2.80;2.08;;;;;;;15.70;97.68;101889.34;4995474;28;20033;-74
2023/07/18 05:17:03;;;;;;;5.47;2.22;;;;;;;15.77;96.92;101890.25;4990377;28;20033;-75
2023/07/18 05:19:29;;;;;;;5.85;1.90;;;;;;;15.79;98.94;101892.66;5001738;28;20060;-76
2023/07/18 05:21:54;;;;;;;6.53;2.25;;;;;;;15.53;100.00;101891.59;5001712;28;20255;-75
2023/07/18 05:24:20;;;;;;;4.20;2.28;;;;;;;15.58;99.29;101890.41;4997069;28;20479;-74
2023/07/18 05:26:45;;;;;;;5.22;1.98;;;;;;;15.77;97.20;101890.25;4994859;28;20037;-74
2023/07/18 05:29:10;;;;;;;5.15;2.08;;;;;;;15.92;95.90;101888.38;4997424;28;20477;-74
2023/07/18 05:31:36;;;;;;;4.90;2.45;;;;;;;15.77;97.41;101895.06;4995568;28;20065;-75
2023/07/18 05:34:02;;;;;;;5.72;2.15;;;;;;;15.99;95.44;101888.41;5006302;28;20424;-75
2023/07/18 05:36:27;;;;;;;3.33;1.85;;;;;;;16.07;95.25;101885.66;4998298;28;20034;-75
2023/07/18 05:38:53;;;;;;;6.88;1.77;;;;;;;16.21;94.25;101885.75;5002232;28;20041;-75
2023/07/18 05:41:18;;;;;;;6.28;2.00;;;;;;;16.15;94.86;101887.31;4995537;28;20021;-75
2023/07/18 05:43:43;;;;;;;7.78;2.08;;;;;;;16.19;95.46;101883.34;5002209;28;20041;-76
2023/07/18 05:46:10;;;;;;;3.47;1.80;;;;;;;16.14;96.66;101885.72;4996064;28;20450;-75
2023/07/18 05:48:35;;;;;;;7.13;2.28;;;;;;;16.13;95.90;101889.72;4997672;28;20058;-74
2023/07/18 05:51:01;;;;;;;4.82;2.45;;;;;;;16.06;96.03;101882.00;5002983;28;20069;-75
2023/07/18 05:53:26;;;;;;;3.40;2.38;;;;;;;16.22;95.63;101882.53;5001182;28;20038;-75
2023/07/18 05:55:52;;;;;;;4.93;2.05;;;;;;;16.29;94.18;101893.06;4998847;28;20077;-75
2023/07/18 05:58:18;;;;;;;4.50;2.63;;;;;;;16.36;96.42;101881.00;4996358;28;20034;-75
2023/07/18 06:00:43;;;;;;;5.78;2.05;;;;;;;16.19;99.19;101882.50;4999376;28;20026;-75
2023/07/18 06:03:09;;;;;;;8.38;2.00;;;;;;;16.28;96.85;101885.81;5004906;28;20045;-75
2023/07/18 06:05:34;;;;;;;6.15;2.10;;;;;;;16.29;99.84;101892.25;4999993;28;20520;-74
2023/07/18 06:07:59;;;;;;;6.40;1.90;;;;;;;16.23;96.75;101889.81;5001683;28;20041;-74
2023/07/18 06:10:25;;;;;;;8.55;2.08;;;;;;;16.55;97.01;101888.38;4999635;28;20045;-75
2023/07/18 06:12:50;;;;;;;4.20;1.92;;;;;;;16.52;98.11;101889.19;4997197;28;20044;-75
2023/07/18 06:15:16;;;;;;;4.72;2.00;;;;;;;16.68;97.91;101886.88;4995387;28;20119;-75
2023/07/18 06:17:41;;;;;;;4.03;1.85;;;;;;;17.14;95.24;101891.94;5007093;28;20030;-76
2023/07/18 06:20:13;;;;;;;3.45;1.60;;;;;;;16.76;96.54;101888.53;5002814;28;20030;-76
2023/07/18 06:22:39;;;;;;;7.15;1.75;;;;;;;16.80;95.35;101888.53;5006640;28;20167;-76
2023/07/18 06:25:06;;;;;;;3.53;1.90;;;;;;;16.93;92.00;101891.84;5002169;28;20388;-76
2023/07/18 06:27:31;;;;;;;3.67;1.85;;;;;;;16.93;92.08;101889.84;5007948;28;20494;-76
2023/07/18 06:29:57;;;;;;;6.80;1.77;;;;;;;17.02;98.82;101890.28;5001001;28;20083;-75
2023/07/18 06:32:23;;;;;;;4.13;2.03;;;;;;;16.91;96.64;101888.59;5006059;28;20393;-75
2023/07/18 06:34:49;;;;;;;3.90;1.73;;;;;;;17.15;97.42;101892.75;5003327;28;20715;-74
2023/07/18 06:37:17;;;;;;;4.82;1.95;;;;;;;17.11;96.24;101891.94;5002849;28;20033;-75
2023/07/18 06:39:43;;;;;;;6.05;1.88;;;;;;;17.12;94.30;101900.03;4998044;28;20033;-74
2023/07/18 06:42:08;;;;;;;7.72;2.58;;;;;;;17.27;95.13;101889.56;5016200;28;20045;-75
2023/07/18 06:44:34;;;;;;;5.38;1.90;;;;;;;17.24;97.39;101887.50;5006334;28;20314;-75
2023/07/18 06:47:00;;;;;;;6.10;1.75;;;;;;;17.23;97.39;101895.19;5003091;28;20025;-75
2023/07/18 06:49:26;;;;;;;5.07;1.90;;;;;;;17.62;95.54;101894.47;5002169;28;20026;-75
2023/07/18 06:51:51;;;;;;;10.07;2.00;;;;;;;17.82;94.02;101885.59;5010881;28;20053;-75
2023/07/18 06:54:17;;;;;;;4.15;1.90;;;;;;;17.66;96.27;101891.66;5003875;28;20717;-76
2023/07/18 06:56:44;;;;;;;7.50;1.77;;;;;;;17.97;94.74;101892.13;5003440;28;20029;-75
2023/07/18 06:59:10;;;;;;;3.80;1.48;;;;;;;17.79;92.68;101887.22;5013683;28;20045;-76
2023/07/18 07:01:35;;;;;;;3.70;1.75;;;;;;;17.57;96.80;101883.56;5009114;28;20365;-75
2023/07/18 07:04:01;;;;;;;7.65;1.95;;;;;;;17.59;94.57;101881.13;5010739;28;20033;-77
2023/07/18 07:06:26;;;;;;;5.68;1.60;;;;;;;17.73;97.29;101894.50;5005102;28;20057;-75
2023/07/18 07:08:52;;;;;;;2.53;1.52;;;;;;;18.02;96.32;101891.69;5009459;28;20026;-75
2023/07/18 07:11:17;;;;;;;3.58;1.90;;;;;;;18.01;93.52;101888.06;5006923;28;20417;-75
2023/07/18 07:13:44;;;;;;;6.20;2.00;;;;;;;17.94;96.30;101888.06;5002415;28;20092;-75
2023/07/18 07:16:09;;;;;;;4.03;1.50;;;;;;;17.93;93.63;101880.78;5007266;28;20766;-76
2023/07/18 07:18:35;;;;;;;6.75;2.40;;;;;;;17.84;97.28;101874.72;5004848;28;20110;-75
2023/07/18 07:21:00;;;;;;;5.63;2.03;;;;;;;17.76;94.59;101878.72;5001721;28;20057;-75
2023/07/18 07:23:26;;;;;;;5.20;2.13;;;;;;;17.96;98.78;101888.47;5008146;28;20040;-75
2023/07/18 07:25:51;;;;;;;3.67;1.45;;;;;;;17.97;96.57;101884.41;5005077;28;20033;-75
2023/07/18 07:28:16;;;;;;;8.25;1.95;;;;;;;18.05;96.41;101883.19;4998631;28;20034;-75
2023/07/18 07:30:42;;;;;;;8.77;1.95;;;;;;;18.24;96.76;101881.16;5005713;28;20061;-75
2023/07/18 07:33:07;;;;;;;6.90;1.50;;;;;;;18.16;96.86;101882.41;5007108;28;20029;-75
2023/07/18 07:35:33;;;;;;;4.18;1.58;;;;;;;18.46;96.81;101884.75;5000815;28;20026;-75
2023/07/18 07:37:59;;;;;;;11.77;6.10;;;;;;;18.47;95.12;101875.84;5008976;28;20037;-75
2023/07/18 07:40:24;;;;;;;5.43;1.83;;;;;;;18.41;96.53;101888.81;5004379;28;20149;-76
2023/07/18 07:42:50;;;;;;;6.82;1.65;;;;;;;18.45;97.17;101881.13;5006474;28;20038;-75
2023/07/18 07:45:16;;;;;;;7.00;2.05;;;;;;;18.48;96.68;101874.63;5007296;28;20040;-75
2023/07/18 07:47:42;;;;;;;8.02;2.25;;;;;;;18.85;95.39;101883.88;5010531;28;20564;-74
2023/07/18 07:50:08;;;;;;;7.68;1.80;;;;;;;18.84;93.60;101877.38;5003124;28;20018;-75
2023/07/18 07:52:35;;;;;;;7.50;1.70;;;;;;;18.82;94.92;101873.34;5006037;28;20025;-75
2023/07/18 07:55:01;;;;;;;4.60;1.40;;;;;;;19.43;92.77;101870.19;5003358;28;20638;-75
2023/07/18 07:57:26;;;;;;;5.78;1.70;;;;;;;19.33;91.99;101863.34;5015525;28;20494;-75
2023/07/18 07:59:52;;;;;;;4.47;1.50;;;;;;;20.24;88.81;101865.09;5005165;28;20859;-77
2023/07/18 08:02:19;;;;;;;10.35;1.88;;;;;;;20.55;85.90;101867.22;5004819;28;20096;-77
2023/07/18 08:04:45;;;;;;;5.15;1.92;;;;;;;20.63;85.99;101857.41;5012727;28;20039;-77
2023/07/18 08:07:11;;;;;;;6.63;1.83;;;;;;;20.44;84.25;101856.75;5012408;28;20030;-77
2023/07/18 08:09:36;;;;;;;7.90;1.95;;;;;;;20.51;85.39;101862.38;5009805;28;20371;-77
2023/07/18 08:12:07;;;;;;;5.80;2.17;;;;;;;20.55;85.74;101861.53;5000582;28;20537;-77
2023/07/18 08:14:34;;;;;;;4.13;1.73;;;;;;;21.01;83.12;101860.19;5005978;28;20057;-76
2023/07/18 08:17:03;;;;;;;6.07;1.75;;;;;;;20.85;81.56;101858.75;5003959;28;20029;-76
2023/07/18 08:19:28;;;;;;;3.83;1.45;;;;;;;20.83;83.66;101855.53;5011352;28;20064;-77
2023/07/18 08:21:54;;;;;;;2.75;1.55;;;;;;;20.55;83.70;101861.53;5010507;28;20410;-76
2023/07/18 08:24:19;;;;;;;3.85;1.98;;;;;;;20.43;83.75;101860.84;5006861;28;20044;-75
2023/07/18 08:26:45;;;;;;;3.97;1.65;;;;;;;20.22;82.97;101844.81;5004991;28;20036;-76
2023/07/18 08:29:10;;;;;;;8.88;1.67;;;;;;;20.50;83.22;101849.38;5001403;28;20053;-77
2023/07/18 08:31:35;;;;;;;4.40;2.13;;;;;;;20.75;85.86;101851.16;5004234;28;20036;-75
2023/07/18 08:34:01;;;;;;;2.40;1.15;;;;;;;20.66;84.20;101848.00;5004520;28;20528;-76
2023/07/18 08:36:27;;;;;;;2.20;1.42;;;;;;;20.76;85.46;101844.22;5003089;28;20028;-76
2023/07/18 08:38:53;;;;;;;3.03;1.42;;;;;;;20.86;83.47;101839.63;5002982;28;20026;-76
2023/07/18 08:41:21;;;;;;;1.75;0.90;;;;;;;20.46;80.07;101837.22;4998943;28;20538;-75
2023/07/18 08:43:48;;;;;;;3.00;1.08;;;;;;;20.47;81.07;101829.50;5003041;28;20069;-76
2023/07/18 08:46:15;;;;;;;6.68;1.27;;;;;;;20.80;81.00;101839.28;5002939;28;20041;-75
2023/07/18 08:48:43;;;;;;;4.55;1.42;;;;;;;20.83;83.95;101834.78;5005443;28;20412;-76
2023/07/18 08:51:09;;;;;;;4.90;0.98;;;;;;;21.29;76.39;101833.34;5003624;28;20474;-76
2023/07/18 08:53:34;;;;;;;2.33;1.17;;;;;;;21.23;77.87;101833.03;5001317;28;20489;-76
2023/07/18 08:56:03;;;;;;;2.40;1.58;;;;;;;21.11;75.07;101836.47;5004935;28;20037;-76
2023/07/18 08:58:28;;;;;;;4.75;1.33;;;;;;;20.89;69.76;101836.75;5021280;28;20072;-76
2023/07/18 09:00:54;;;;;;;2.63;0.88;;;;;;;21.25;71.61;101833.41;4996906;28;20430;-76
2023/07/18 09:03:20;;;;;;;3.50;1.15;;;;;;;21.50;71.32;101829.38;5010913;28;20082;-76
2023/07/18 09:05:45;;;;;;;4.63;1.10;;;;;;;21.65;73.01;101827.94;5010906;28;20371;-77
2023/07/18 09:08:13;;;;;;;4.13;0.80;;;;;;;21.23;72.18;101830.19;4997897;28;20542;-75
2023/07/18 09:10:39;;;;;;;1.80;0.80;;;;;;;20.94;77.07;101826.13;5009855;28;20030;-75
2023/07/18 09:13:07;;;;;;;1.58;1.00;;;;;;;21.10;74.35;101820.59;5002975;28;20021;-75
2023/07/18 09:15:34;;;;;;;1.33;0.85;;;;;;;21.36;77.80;101824.69;5000785;28;20033;-76
2023/07/18 09:18:03;;;;;;;5.45;1.38;;;;;;;21.43;72.94;101824.59;5003757;28;20500;-76
2023/07/18 09:20:32;;;;;;;2.88;1.33;;;;;;;21.35;74.91;101817.38;4999642;28;20474;-75
2023/07/18 09:22:59;;;;;;;2.10;0.90;;;;;;;21.29;81.44;101819.09;5018492;28;20026;-75
2023/07/18 09:25:25;;;;;;;1.35;0.80;;;;;;;21.56;76.45;101813.41;5003888;28;20025;-75
2023/07/18 09:27:54;;;;;;;3.90;1.00;;;;;;;21.67;67.58;101811.22;4999034;28;20113;-76
2023/07/18 09:30:41;;;;;;;3.67;0.93;;;;;;;21.75;71.48;101814.72;5002645;28;20467;-75
2023/07/18 09:33:06;;;;;;;4.95;1.20;;;;;;;21.51;76.37;101803.31;5005855;28;20707;-76
2023/07/18 09:35:37;;;;;;;2.72;1.00;;;;;;;21.56;68.29;101807.72;4999948;28;20068;-76
2023/07/18 09:38:02;;;;;;;2.97;1.10;;;;;;;21.54;76.93;101807.34;5003665;28;20124;-76
2023/07/18 09:40:28;;;;;;;2.53;0.80;;;;;;;21.81;70.83;101809.34;5000105;28;20121;-76
2023/07/18 09:42:54;;;;;;;1.77;0.80;;;;;;;21.84;63.41;101814.16;5002571;28;20048;-76
2023/07/18 09:45:21;;;;;;;1.95;1.40;;;;;;;21.83;69.57;101806.88;5000905;28;20117;-76
2023/07/18 09:47:46;;;;;;;1.40;0.85;;;;;;;21.88;73.95;101803.50;5005500;28;20042;-76
2023/07/18 09:50:13;;;;;;;3.72;1.15;;;;;;;22.00;66.15;101808.59;5002632;28;20021;-76
2023/07/18 09:52:46;;;;;;;4.32;0.77;;;;;;;22.24;67.87;101798.00;5007189;28;20037;-76
2023/07/18 09:55:14;;;;;;;2.55;1.02;;;;;;;22.00;66.78;101799.25;5001816;28;20397;-76
2023/07/18 09:57:43;;;;;;;2.58;0.95;;;;;;;21.86;63.29;101800.28;5015651;28;20030;-76
2023/07/18 10:00:15;;;;;;;3.83;1.23;;;;;;;21.83;69.34;101790.56;5002410;28;20037;-76
2023/07/18 10:02:40;;;;;;;3.10;0.98;;;;;;;21.86;65.35;101797.44;5004705;28;20053;-76
2023/07/18 10:05:09;;;;;;;3.33;0.93;;;;;;;21.98;63.00;101802.53;5003045;28;20042;-76
2023/07/18 10:07:38;;;;;;;2.33;0.68;;;;;;;21.99;79.44;101795.59;4997687;28;20139;-76
2023/07/18 10:10:08;;;;;;;5.43;1.05;;;;;;;21.97;71.63;101798.06;5000290;28;20030;-76
2023/07/18 10:12:37;;;;;;;6.00;0.98;;;;;;;22.06;62.35;101795.44;5001872;28;20482;-76
2023/07/18 10:15:04;;;;;;;2.97;0.98;;;;;;;22.24;74.23;101791.47;4998809;28;20528;-76
2023/07/18 10:17:39;;;;;;;1.35;1.25;;;;;;;22.44;64.73;101800.84;4998746;28;20022;-76
2023/07/18 10:20:19;;;;;;;3.03;0.95;;;;;;;22.44;70.61;101792.28;5006077;28;20536;-76
2023/07/18 10:22:59;;;;;;;3.92;0.80;;;;;;;22.24;64.04;101791.47;5004130;28;20033;-76
2023/07/18 10:25:26;;;;;;;1.77;1.00;;;;;;;22.62;64.54;101793.97;5003449;28;20572;-76
2023/07/18 10:27:52;;;;;;;2.60;1.00;;;;;;;22.73;63.00;101794.56;5002078;28;20044;-76
2023/07/18 10:30:19;;;;;;;3.22;0.88;;;;;;;22.94;68.36;101779.00;5004690;28;20458;-76
2023/07/18 10:32:55;;;;;;;2.40;1.20;;;;;;;23.03;60.73;101787.00;5003022;28;20033;-76
2023/07/18 10:35:26;;;;;;;2.38;1.02;;;;;;;23.01;62.11;101775.22;5004600;28;20048;-76
2023/07/18 10:37:54;;;;;;;1.98;0.85;;;;;;;22.82;64.31;101783.34;5001491;28;20068;-76
2023/07/18 10:40:38;;;;;;;4.97;1.40;;;;;;;22.90;70.23;101767.66;4998678;28;20052;-76
2023/07/18 10:43:24;;;;;;;3.28;0.85;;;;;;;22.89;69.64;101774.59;5003459;28;20041;-76
2023/07/18 10:45:49;;;;;;;1.35;0.90;;;;;;;23.16;57.39;101761.41;4995753;28;20401;-76
2023/07/18 10:48:17;;;;;;;1.85;0.90;;;;;;;23.18;62.00;101771.13;5006525;28;20026;-76
2023/07/18 10:50:43;;;;;;;3.85;1.00;;;;;;;23.10;58.29;101766.81;5004206;28;20029;-76
2023/07/18 10:53:20;;;;;;;3.00;1.10;;;;;;;23.21;59.70;101760.84;5001136;28;20060;-76
2023/07/18 10:55:47;;;;;;;2.30;1.10;;;;;;;23.13;66.26;101760.25;4998025;28;20407;-76
2023/07/18 10:58:18;;;;;;;1.67;1.00;;;;;;;23.45;64.79;101755.78;5018790;28;20056;-76
2023/07/18 11:00:44;;;;;;;4.10;0.90;;;;;;;23.34;57.57;101762.56;4999490;28;20034;-76
2023/07/18 11:03:23;;;;;;;2.88;1.02;;;;;;;23.22;55.40;101746.13;5005480;28;20088;-76
2023/07/18 11:05:50;;;;;;;1.42;0.75;;;;;;;23.51;61.65;101739.72;5005548;28;20100;-76
2023/07/18 11:08:29;;;;;;;3.90;1.00;;;;;;;23.33;58.40;101740.94;5010102;28;20064;-75
2023/07/18 11:10:59;;;;;;;3.25;1.05;;;;;;;23.40;60.60;101739.16;5001778;28;20501;-76
2023/07/18 11:13:29;;;;;;;3.58;1.20;;;;;;;23.72;60.37;101738.34;5007414;28;20621;-76
2023/07/18 11:16:05;;;;;;;1.85;1.05;;;;;;;23.89;61.48;101736.28;5002598;28;20014;-76
2023/07/18 11:18:34;;;;;;;4.18;1.33;;;;;;;23.78;59.32;101730.03;5001294;28;20041;-76
2023/07/18 11:21:07;;;;;;;6.05;1.08;;;;;;;24.11;58.08;101725.03;5011367;28;20172;-76